Saint Monance, United Kingdom
Current Conditions -  °F | °C
As of 10:50 PM on Saturday 25 Oct 2014 (Local Time) from EGQL Reporting Station
Few Clouds Few Clouds  
Wind Chill: 50°   Ceiling: Unl
Heat Index: 50°   Visibility: 6mi
Dew Point: 45°   Wind: 29mph
Humidity: 82%   Direction: 250°WSW
Pressure: 29.62"   Gusts: NA
Location:  56.21°N, 2.77°W
Report Text: EGQL 252150Z 25025KT 9999 FEW030 10/07 Q1003 BLU
Loading
Personal Weather Stations






























Interactive Weather Map
Tropical Storm Tracking
New forecast layout! Learn more

10-Day Weather Forecast

Advertisements
Track Severe Weather on mobile